Date,TemperatureHighF,TemperatureAvgF,TemperatureLowF,DewpointHighF,DewpointAvgF,DewpointLowF,HumidityHigh,HumidityAvg,HumidityLow,PressureMaxIn,PressureMinIn,WindSpeedMaxMPH,WindSpeedAvgMPH,GustSpeedMaxMPH,PrecipitationSumIn
2013-7-1,76.5,59.8,49.2,58.2,48.7,41.1,95,71,35,30.19,29.67,19,2,19,0.00
2013-7-2,72.4,60.6,47.5,52.2,46.9,41.0,95,64,35,30.19,30.10,15,2,15,0.00
2013-7-3,77.6,66.0,54.2,60.5,54.0,47.6,85,66,47,30.14,30.04,13,2,13,0.00
2013-7-4,77.6,67.5,60.0,64.6,60.9,57.7,97,80,59,30.11,30.03,14,2,14,0.00
2013-7-5,85.2,72.9,61.3,67.1,60.6,56.4,88,68,41,30.09,30.01,12,2,12,0.00
2013-7-6,86.0,73.9,61.3,65.8,60.3,56.1,87,65,42,30.07,29.98,12,2,16,0.00
2013-7-7,84.8,71.8,61.7,68.7,63.7,58.3,96,77,48,30.01,29.94,15,2,15,0.03
2013-7-8,76.2,69.8,66.5,71.1,67.6,64.4,96,93,81,30.02,29.93,9,2,9,0.48
2013-7-9,80.0,71.5,66.5,72.2,67.6,64.7,97,88,71,30.01,29.74,10,1,10,0.04
2013-7-10,71.2,67.3,58.0,69.3,61.0,54.7,96,81,62,29.97,29.71,21,4,21,1.12
2013-7-11,72.9,63.3,52.8,60.7,55.5,51.1,98,77,53,30.12,29.96,16,4,17,0.00
2013-7-12,81.7,65.7,50.2,60.7,55.0,48.2,97,72,36,30.20,30.10,13,2,15,0.00
2013-7-13,83.0,70.8,59.3,65.0,59.6,54.8,92,70,49,30.22,30.12,13,3,14,0.00
2013-7-14,85.8,72.4,57.0,68.3,62.6,54.8,96,73,50,30.28,30.21,14,2,16,0.00
2013-7-15,87.9,75.8,62.1,70.7,65.8,60.1,97,74,49,30.33,30.26,11,2,12,0.00
2013-7-16,91.6,78.5,64.4,74.5,69.3,62.6,96,75,54,30.31,30.22,11,2,12,0.00
2013-7-17,91.2,82.0,72.1,74.2,71.2,66.8,91,71,48,30.26,30.14,13,3,15,0.00
2013-7-18,89.8,79.3,70.8,76.2,71.4,67.9,94,78,54,30.15,29.83,18,2,20,0.00
2013-7-19,85.8,78.7,65.2,73.8,69.1,59.9,91,73,62,29.83,29.68,23,5,23,0.31
2013-7-20,69.2,64.4,53.6,62.2,53.7,45.3,95,70,46,30.02,29.76,20,5,20,0.00
2013-7-21,74.1,60.4,44.0,59.0,52.4,41.8,94,76,47,30.07,29.96,13,2,14,0.00
2013-7-22,85.8,72.9,58.9,66.2,61.7,55.4,91,70,49,29.96,29.68,15,3,15,0.00
2013-7-23,76.6,62.8,57.4,66.3,53.9,45.3,92,73,61,29.95,29.66,28,8,29,0.22
2013-7-24,69.3,59.1,44.0,53.3,48.3,41.9,95,69,49,30.08,29.95,14,3,14,0.00
2013-7-25,78.5,63.8,48.0,58.1,52.2,46.1,95,69,40,30.09,30.00,14,2,14,0.00
2013-7-26,73.6,61.0,56.5,64.7,57.2,52.6,100,88,63,30.02,29.36,16,2,16,0.66
2013-7-27,61.1,58.0,56.1,61.1,56.2,49.4,100,94,78,29.85,29.33,14,4,16,0.17
2013-7-28,64.0,57.3,53.3,54.9,52.8,49.6,97,86,64,29.91,29.76,17,2,17,0.11
2013-7-29,67.9,58.9,53.5,57.8,54.8,52.3,99,87,66,30.20,29.91,12,2,14,0.11
2013-7-30,74.3,60.5,50.3,60.9,55.4,49.2,97,85,55,30.25,30.12,8,2,8,0.11
2013-7-31,76.5,66.0,57.1,64.3,60.0,55.6,96,82,61,30.13,29.92,25,2,25,0.11